Time;durP1;ratioP1;P1;durP2;ratioP2;P2;SDS_P1;SDS_P2;PMS_P1;PMS_P2;Temp;Humidity;BMP_temperature;BMP_pressure;BME280_temperature;BME280_humidity;BME280_pressure;Samples;Min_cycle;Max_cycle;Signal;HPM_P1;HPM_P2
2022/12/15 00:39:57;;;;;;;140.68;66.47;;;;;;;-2.22;74.57;99054.37;2080441;85;31107;-67
2022/12/15 00:42:57;;;;;;;134.20;66.05;;;;;;;-2.24;74.45;99056.61;2080237;85;33196;-67
2022/12/15 01:22:55;;;;;;;164.85;80.57;;;;;;;-2.52;74.27;99084.16;2103217;84;27738;-67
2022/12/15 01:25:57;;;;;;;182.05;85.90;;;;;;;-2.52;74.27;99080.69;2102978;84;28654;-67
2022/12/15 01:28:58;;;;;;;168.93;78.92;;;;;;;-2.53;74.33;99092.06;2102989;84;31030;-67
2022/12/15 01:32:00;;;;;;;177.12;81.05;;;;;;;-2.52;74.27;99093.34;2103111;84;32957;-66
2022/12/15 01:35:04;;;;;;;175.45;82.15;;;;;;;-2.52;74.29;99107.76;2102932;84;29374;-67
2022/12/15 01:38:05;;;;;;;173.35;79.97;;;;;;;-2.53;74.31;99104.72;2103197;84;27662;-67
2022/12/15 01:41:11;;;;;;;176.07;81.00;;;;;;;-2.53;74.27;99111.27;2103022;84;28682;-67
2022/12/15 01:44:23;;;;;;;168.35;79.30;;;;;;;-2.52;74.36;99109.07;2102977;84;31039;-67
2022/12/15 01:47:25;;;;;;;157.15;74.92;;;;;;;-2.51;74.30;99116.05;2102718;84;33849;-66
2022/12/15 01:50:27;;;;;;;172.65;79.87;;;;;;;-2.54;74.24;99128.35;2102829;84;30162;-67
2022/12/15 01:53:33;;;;;;;172.68;81.25;;;;;;;-2.54;74.31;99131.82;2045835;85;28226;-66
2022/12/15 01:56:38;;;;;;;174.82;84.13;;;;;;;-2.54;74.34;99130.97;2059028;86;28661;-66
2022/12/15 01:59:42;;;;;;;;;;;;;;;-2.54;74.41;99127.03;2061493;86;31026;-67
2022/12/15 02:02:44;;;;;;;185.82;83.80;;;;;;;-2.56;74.32;99139.30;2044496;86;32975;-66
2022/12/15 02:05:46;;;;;;;180.10;81.35;;;;;;;-2.59;74.35;99141.53;2058619;86;29373;-67
2022/12/15 02:08:50;;;;;;;180.55;83.80;;;;;;;-2.56;74.47;99137.98;2059007;86;27765;-66
2022/12/15 02:12:09;;;;;;;170.28;83.25;;;;;;;-2.58;74.44;99144.58;2059153;86;28652;-66
2022/12/15 02:15:25;;;;;;;199.42;86.87;;;;;;;-2.57;74.41;99141.50;2058981;86;31201;-66
2022/12/15 02:18:49;;;;;;;170.90;82.30;;;;;;;-2.56;74.41;99150.64;2059010;86;32983;-65
2022/12/15 02:21:59;;;;;;;178.55;84.87;;;;;;;-2.57;74.35;99157.23;2058247;86;29377;-65
2022/12/15 02:25:38;;;;;;;181.12;84.72;;;;;;;-2.60;74.32;99159.46;2026834;87;27744;-66
2022/12/15 02:29:12;;;;;;;177.55;82.47;;;;;;;-2.62;74.37;99152.06;2061690;86;29466;-66
2022/12/15 02:32:27;;;;;;;175.97;82.15;;;;;;;-2.64;74.35;99161.70;2026512;87;31063;-66
2022/12/15 02:35:42;;;;;;;175.18;82.92;;;;;;;-2.65;74.53;99161.27;2031590;87;33016;-67
2022/12/15 02:38:44;;;;;;;177.10;80.83;;;;;;;-2.64;74.48;99169.11;2037455;87;29404;-67
2022/12/15 02:41:47;;;;;;;176.85;83.35;;;;;;;-2.63;74.53;99175.23;2038059;87;27751;-67
2022/12/15 02:45:06;;;;;;;171.57;80.20;;;;;;;-2.62;74.48;99181.75;2037682;87;29465;-66
2022/12/15 02:48:25;;;;;;;173.50;81.50;;;;;;;-2.61;74.51;99190.50;2082804;85;31022;-66
2022/12/15 02:51:49;;;;;;;168.37;77.10;;;;;;;-2.62;74.43;99197.48;2041033;86;33851;-66
2022/12/15 02:55:32;;;;;;;166.20;80.03;;;;;;;-2.61;74.44;99199.67;1919303;92;29404;-66
2022/12/15 02:58:48;;;;;;;171.15;79.05;;;;;;;-2.60;74.56;99199.64;1948347;90;27823;-66
2022/12/15 03:01:54;;;;;;;166.82;77.20;;;;;;;-2.57;74.62;99205.73;1892360;94;28827;-66
2022/12/15 03:04:57;;;;;;;155.65;75.00;;;;;;;-2.57;74.49;99204.00;1892438;94;31861;-66
2022/12/15 03:08:00;;;;;;;148.00;73.15;;;;;;;-2.55;74.55;99211.83;1892353;94;33148;-66
2022/12/15 03:11:01;;;;;;;143.68;70.15;;;;;;;-2.54;74.47;99219.66;1892357;94;29349;-66
2022/12/15 03:14:03;;;;;;;144.45;70.80;;;;;;;-2.53;74.48;99227.95;1892271;94;27822;-66
2022/12/15 03:17:06;;;;;;;146.62;71.80;;;;;;;-2.51;74.58;99234.05;1892480;94;28674;-67
2022/12/15 03:20:09;;;;;;;147.40;69.87;;;;;;;-2.49;74.58;99238.83;1892420;94;31900;-67
2022/12/15 03:23:11;;;;;;;144.28;71.05;;;;;;;-2.46;74.46;99243.16;1941565;91;33820;-66
2022/12/15 03:26:12;;;;;;;150.78;67.70;;;;;;;-2.46;74.53;99238.80;1941940;91;30126;-67
2022/12/15 03:29:14;;;;;;;152.32;71.17;;;;;;;-2.45;74.55;99240.53;1968809;90;27934;-67
2022/12/15 03:32:16;;;;;;;146.37;68.20;;;;;;;-2.42;74.53;99242.23;2022845;87;28674;-67
2022/12/15 03:35:17;;;;;;;139.68;66.00;;;;;;;-2.40;74.46;99245.70;2073215;85;31076;-67
2022/12/15 03:38:28;;;;;;;138.68;64.70;;;;;;;-2.39;74.46;99245.25;2080082;83;33072;-61
2022/12/15 03:41:29;;;;;;;145.92;68.52;;;;;;;-2.38;74.49;99244.36;2090902;84;30038;-70
2022/12/15 03:44:31;;;;;;;138.37;65.40;;;;;;;-2.36;74.50;99250.03;2093411;85;27840;-70
2022/12/15 03:47:32;;;;;;;143.60;67.25;;;;;;;-2.36;74.29;99250.03;2102914;84;28322;-70
2022/12/15 03:50:34;;;;;;;136.77;66.22;;;;;;;-2.36;74.31;99256.58;2102831;84;31039;-70
2022/12/15 03:53:36;;;;;;;136.45;65.37;;;;;;;-2.33;74.49;99258.28;2102587;83;33068;-70
2022/12/15 03:56:37;;;;;;;141.12;65.87;;;;;;;-2.30;74.47;99265.66;2103025;83;29375;-69
2022/12/15 03:59:39;;;;;;;132.45;63.78;;;;;;;-2.30;74.29;99267.43;2102934;83;27709;-68
2022/12/15 04:02:42;;;;;;;142.82;67.12;;;;;;;-2.31;74.14;99269.63;2103106;84;28652;-70
2022/12/15 04:05:43;;;;;;;134.97;65.57;;;;;;;-2.32;74.25;99267.47;2102828;84;31024;-69
2022/12/15 04:08:45;;;;;;;135.07;64.82;;;;;;;-2.29;74.33;99271.79;2102951;84;32947;-70
2022/12/15 04:11:46;;;;;;;124.85;61.48;;;;;;;-2.27;74.35;99277.89;2102842;84;29307;-69
2022/12/15 04:14:48;;;;;;;124.45;60.78;;;;;;;-2.26;74.39;99277.00;2103036;84;27665;-69
2022/12/15 04:17:49;;;;;;;127.78;61.70;;;;;;;-2.23;74.37;99280.86;2102841;84;28642;-69
2022/12/15 04:20:51;;;;;;;128.00;62.62;;;;;;;-2.21;74.36;99286.11;2102631;84;31040;-70
2022/12/15 05:33:58;;;;;;;121.85;55.63;;;;;;;-2.06;74.11;99365.04;2082737;85;29500;-70
2022/12/15 05:37:02;;;;;;;127.70;61.13;;;;;;;-2.07;74.10;99362.88;2068366;86;27708;-69
2022/12/15 05:40:05;;;;;;;123.87;59.85;;;;;;;-2.05;74.13;99383.84;2043002;87;29511;-70
2022/12/15 05:43:06;;;;;;;109.90;55.80;;;;;;;-2.03;74.20;99387.31;2054727;86;31926;-70
2022/12/15 05:46:08;;;;;;;109.65;55.92;;;;;;;-2.03;74.16;99388.63;2054711;86;33009;-69
2022/12/15 05:49:13;;;;;;;118.50;57.98;;;;;;;-2.02;74.31;99393.88;2054853;85;30252;-69
2022/12/15 05:52:15;;;;;;;115.22;57.40;;;;;;;-2.00;74.18;99408.27;2054803;86;27711;-70
2022/12/15 05:55:18;;;;;;;113.20;55.33;;;;;;;-1.99;74.24;99407.39;2054757;86;29465;-68
2022/12/15 05:58:19;;;;;;;103.50;54.23;;;;;;;-1.96;74.38;99406.47;2054858;86;31061;-68
2022/12/15 06:01:21;;;;;;;111.65;53.10;;;;;;;-1.92;74.46;99416.05;2054781;86;33733;-68
2022/12/15 06:04:22;;;;;;;103.15;53.55;;;;;;;-1.90;74.42;99409.02;2054740;86;30133;-68
2022/12/15 06:07:24;;;;;;;107.12;53.78;;;;;;;-1.87;74.49;99413.78;2054846;86;27679;-70
2022/12/15 06:10:26;;;;;;;108.52;52.98;;;;;;;-1.88;74.19;99425.62;2054935;86;28690;-71
2022/12/15 06:13:33;;;;;;;110.72;53.83;;;;;;;-1.87;74.28;99437.41;2054503;86;32112;-69
2022/12/15 06:16:35;;;;;;;108.27;51.75;;;;;;;-1.86;74.29;99436.98;2054629;86;32979;-68
2022/12/15 06:19:37;;;;;;;97.78;50.65;;;;;;;-1.85;74.16;99440.03;2035212;86;30134;-69
2022/12/15 06:22:38;;;;;;;104.53;50.63;;;;;;;-1.83;74.30;99446.14;2054001;85;27790;-67
2022/12/15 06:25:40;;;;;;;100.18;50.12;;;;;;;-1.81;74.38;99454.83;2054267;85;28146;-71
2022/12/15 06:28:41;;;;;;;126.72;59.33;;;;;;;-1.78;74.39;99464.45;2054328;85;31253;-68
2022/12/15 06:31:44;;;;;;;125.10;57.35;;;;;;;-1.78;74.21;99473.63;2054561;86;32944;-70
2022/12/15 06:34:46;;;;;;;93.82;49.45;;;;;;;-1.77;74.28;99478.00;2054376;86;29327;-70
2022/12/15 06:37:48;;;;;;;101.27;51.25;;;;;;;-1.75;74.30;99490.67;2054209;85;28297;-70
2022/12/15 06:40:56;;;;;;;103.40;51.68;;;;;;;-1.73;74.41;99489.75;2062954;84;28646;-68
2022/12/15 06:43:59;;;;;;;105.25;51.63;;;;;;;-1.70;74.46;99491.45;2074978;84;31915;-74
2022/12/15 06:47:01;;;;;;;96.63;49.83;;;;;;;-1.68;74.39;99497.56;2011970;87;32973;-68
2022/12/15 06:50:03;;;;;;;109.35;53.68;;;;;;;-1.69;74.21;99498.45;2021682;86;29688;-68
2022/12/15 06:53:05;;;;;;;105.20;53.17;;;;;;;-1.65;74.35;99505.41;2096375;84;27730;-69
2022/12/15 06:56:14;;;;;;;99.90;51.68;;;;;;;-1.62;74.44;99507.12;2090993;85;28652;-69
2022/12/15 06:59:16;;;;;;;99.83;50.75;;;;;;;-1.59;74.53;99515.84;2090391;84;32004;-70
2022/12/15 07:02:18;;;;;;;94.47;51.63;;;;;;;-1.57;74.32;99522.38;2090729;84;33142;-70
2022/12/15 07:05:21;;;;;;;98.47;49.58;;;;;;;-1.54;74.40;99523.66;2090929;84;29688;-68
2022/12/15 07:08:22;;;;;;;97.33;49.25;;;;;;;-1.53;74.45;99518.84;2091000;85;27544;-68
2022/12/15 07:11:24;;;;;;;97.20;49.40;;;;;;;-1.49;74.36;99524.48;2090991;85;28680;-67
2022/12/15 07:14:26;;;;;;;90.15;48.75;;;;;;;-1.48;74.30;99527.50;2090756;85;31757;-67
2022/12/15 07:17:27;;;;;;;104.55;52.17;;;;;;;-1.45;74.39;99527.92;2090892;84;34065;-67
2022/12/15 07:20:29;;;;;;;109.07;51.75;;;;;;;-1.44;74.18;99531.84;2090852;84;29374;-68
2022/12/15 07:23:31;;;;;;;96.20;50.00;;;;;;;-1.41;74.25;99538.83;2091019;84;27736;-67
2022/12/15 07:26:33;;;;;;;94.45;51.02;;;;;;;-1.38;74.16;99544.02;2090961;84;28650;-67
2022/12/15 07:29:35;;;;;;;94.97;48.13;;;;;;;-1.37;74.17;99544.44;2090855;84;31064;-67
2022/12/15 07:32:37;;;;;;;88.03;45.80;;;;;;;-1.33;74.09;99550.55;2090792;84;33594;-67
2022/12/15 07:35:38;;;;;;;101.95;50.70;;;;;;;-1.32;74.10;99545.26;2090815;84;29326;-67
2022/12/15 07:38:40;;;;;;;94.85;48.95;;;;;;;-1.26;74.12;99558.76;2091040;85;27703;-69
2022/12/15 07:41:42;;;;;;;93.70;48.08;;;;;;;-1.25;73.78;99562.70;2085682;84;29439;-69
2022/12/15 07:44:43;;;;;;;92.88;46.58;;;;;;;-1.22;73.82;99570.52;2082716;85;31081;-69
2022/12/15 07:47:49;;;;;;;92.08;47.90;;;;;;;-1.16;74.01;99579.22;2102957;84;32952;-69
2022/12/15 07:50:55;;;;;;;87.55;44.03;;;;;;;-1.12;73.86;99579.61;2102787;84;29324;-69
2022/12/15 07:53:54;;;;;;;91.95;48.08;;;;;;;-1.09;73.63;99576.94;2102784;84;27774;-69
2022/12/15 07:56:55;;;;;;;84.42;45.80;;;;;;;-1.04;73.70;99583.44;2103092;84;29455;-69
2022/12/15 07:59:57;;;;;;;78.78;41.10;;;;;;;-1.02;73.71;99585.15;2103091;84;31012;-70
2022/12/15 08:03:01;;;;;;;73.02;38.50;;;;;;;-0.99;73.54;99593.46;2103021;84;32956;-68
2022/12/15 08:06:10;;;;;;;64.35;34.00;;;;;;;-0.99;73.29;99593.00;2103140;84;30169;-66
2022/12/15 08:09:11;;;;;;;55.95;28.75;;;;;;;-1.00;73.09;99596.52;2102994;84;28307;-66
2022/12/15 08:12:14;;;;;;;55.98;28.25;;;;;;;-1.00;72.75;99605.72;2102577;84;29520;-69
2022/12/15 08:15:15;;;;;;;55.45;30.30;;;;;;;-0.96;72.99;99617.05;2082963;84;31037;-67
2022/12/15 08:18:17;;;;;;;53.60;29.30;;;;;;;-0.97;72.53;99620.14;2103027;84;33177;-68
2022/12/15 08:21:19;;;;;;;50.65;28.57;;;;;;;-0.95;72.48;99625.37;2102780;84;29549;-68
2022/12/15 08:24:21;;;;;;;47.48;27.27;;;;;;;-0.90;72.39;99631.88;2102920;84;27805;-68
2022/12/15 08:27:23;;;;;;;52.60;29.52;;;;;;;-0.88;72.50;99636.67;2102757;84;28642;-67
2022/12/15 08:30:24;;;;;;;59.65;31.50;;;;;;;-0.85;72.40;99637.95;2102768;83;31140;-69
2022/12/15 08:33:26;;;;;;;90.87;45.92;;;;;;;-0.86;72.17;99630.52;2102418;84;33078;-68
2022/12/15 08:36:28;;;;;;;149.62;69.97;;;;;;;-0.85;72.09;99628.31;2102928;84;29326;-68
2022/12/15 08:39:30;;;;;;;95.72;47.58;;;;;;;-0.83;72.12;99625.65;2103176;83;28342;-68
2022/12/15 08:42:36;;;;;;;145.80;61.68;;;;;;;-0.76;72.26;99631.27;2091456;84;28633;-67
2022/12/15 08:45:40;;;;;;;159.50;71.57;;;;;;;-0.71;72.15;99631.19;2088030;85;31039;-68
2022/12/15 08:48:42;;;;;;;164.30;71.33;;;;;;;-0.65;71.82;99640.29;2088076;84;32821;-66
2022/12/15 08:51:44;;;;;;;97.35;48.08;;;;;;;-0.59;71.78;99653.36;2060612;85;29237;-68
2022/12/15 08:54:45;;;;;;;56.65;32.88;;;;;;;-0.52;71.95;99652.39;2053552;86;28268;-68
2022/12/15 08:57:47;;;;;;;55.80;30.37;;;;;;;-0.41;71.76;99646.09;2053877;86;28638;-67
2022/12/15 09:00:50;;;;;;;73.87;38.40;;;;;;;-0.36;71.63;99641.63;2053887;86;31052;-68
2022/12/15 09:03:54;;;;;;;65.00;34.70;;;;;;;-0.26;71.77;99644.53;2053837;86;32973;-67
2022/12/15 09:06:56;;;;;;;109.90;54.03;;;;;;;-0.18;71.69;99641.34;2054134;86;29293;-67
2022/12/15 09:09:57;;;;;;;104.97;50.78;;;;;;;-0.10;71.50;99648.23;2053971;86;27682;-65
2022/12/15 09:12:58;;;;;;;173.13;71.02;;;;;;;-0.10;70.99;99654.81;2053872;86;28616;-68
2022/12/15 09:16:04;;;;;;;167.57;61.53;;;;;;;-0.06;71.10;99657.36;2053843;86;31506;-66
2022/12/15 09:19:07;;;;;;;139.37;54.18;;;;;;;0.01;71.05;99662.54;2053878;86;33860;-66
2022/12/15 09:22:08;;;;;;;111.55;46.42;;;;;;;0.09;70.83;99675.11;2053760;86;28788;-66
2022/12/15 09:25:10;;;;;;;125.90;53.55;;;;;;;0.16;70.78;99669.33;2053898;86;27762;-66
2022/12/15 09:28:13;;;;;;;98.75;43.60;;;;;;;0.23;70.67;99665.67;2053944;86;28665;-66
2022/12/15 09:31:23;;;;;;;75.10;36.98;;;;;;;0.32;70.31;99664.64;2053825;86;32016;-67
2022/12/15 09:34:24;;;;;;;78.50;38.00;;;;;;;0.40;70.61;99674.14;2053788;86;33692;-66
2022/12/15 09:37:26;;;;;;;101.70;40.20;;;;;;;0.49;70.23;99683.65;2053924;86;29324;-67
2022/12/15 09:40:32;;;;;;;68.85;31.73;;;;;;;0.54;70.03;99675.65;2053674;86;28402;-66
2022/12/15 09:43:33;;;;;;;;;;;;;;;0.57;69.71;99666.37;2038930;86;28749;-66
2022/12/15 09:47:20;;;;;;;48.68;27.77;;;;;;;0.59;69.40;99673.34;2053940;86;31053;-66
2022/12/15 09:50:34;;;;;;;44.20;24.75;;;;;;;0.63;69.53;99675.92;2031439;86;32999;-66
2022/12/15 09:53:35;;;;;;;56.40;32.55;;;;;;;0.59;69.07;99676.44;2043441;86;29333;-66
2022/12/15 09:56:51;;;;;;;75.25;38.35;;;;;;;0.51;68.89;99677.91;2054033;86;27648;-66
2022/12/15 10:00:20;;;;;;;65.78;32.28;;;;;;;0.41;68.61;99672.39;2053841;86;29842;-67
2022/12/15 10:04:08;;;;;;;85.75;36.55;;;;;;;0.29;68.34;99672.16;2053818;86;31084;-67
2022/12/15 10:07:30;;;;;;;60.35;29.07;;;;;;;0.17;68.50;99672.38;2053977;86;32460;-66
2022/12/15 10:10:57;;;;;;;64.45;32.38;;;;;;;0.10;68.38;99679.48;2053726;86;29537;-67
2022/12/15 10:14:29;;;;;;;64.47;29.98;;;;;;;0.03;68.29;99677.41;2053963;86;27828;-66
2022/12/15 10:17:42;;;;;;;93.97;42.55;;;;;;;0.03;68.42;99677.41;2053894;86;28706;-67
2022/12/15 10:20:44;;;;;;;80.83;38.25;;;;;;;0.06;68.31;99668.61;2053764;86;31203;-66
2022/12/15 10:23:48;;;;;;;51.40;29.55;;;;;;;0.09;68.31;99673.80;2053725;86;32952;-66
2022/12/15 10:27:18;;;;;;;42.75;24.95;;;;;;;0.17;68.41;99681.14;2053831;86;30275;-66
2022/12/15 10:30:20;;;;;;;43.58;25.25;;;;;;;0.23;68.26;99685.42;2054028;86;27816;-67
2022/12/15 10:33:32;;;;;;;48.73;24.75;;;;;;;0.37;68.54;99686.52;2053831;86;28706;-66
2022/12/15 10:36:34;;;;;;;41.90;24.20;;;;;;;0.52;68.53;99691.94;2031147;87;31134;-66
2022/12/15 10:39:42;;;;;;;41.30;23.75;;;;;;;0.66;68.54;99689.94;2047439;87;33553;-66
2022/12/15 10:42:49;;;;;;;39.67;22.30;;;;;;;0.81;68.28;99703.72;2045281;84;29510;-60
2022/12/15 10:46:10;;;;;;;38.25;23.15;;;;;;;0.89;68.25;99701.36;2054794;86;27726;-67
2022/12/15 10:49:17;;;;;;;45.73;25.75;;;;;;;0.94;67.88;99695.09;2054298;86;29570;-64
2022/12/15 10:52:24;;;;;;;43.70;22.50;;;;;;;0.95;67.68;99691.56;2054946;86;32190;-63
2022/12/15 10:55:42;;;;;;;44.95;25.23;;;;;;;0.94;67.51;99684.55;2054740;86;32969;-62
2022/12/15 10:58:51;;;;;;;48.17;26.12;;;;;;;0.85;67.16;99694.39;2054961;86;29876;-68
2022/12/15 11:01:54;;;;;;;59.33;30.55;;;;;;;0.78;67.05;99694.55;2054609;86;27694;-64
2022/12/15 11:05:15;;;;;;;49.33;28.83;;;;;;;0.71;66.99;99692.48;2054851;86;29046;-64
2022/12/15 11:08:16;;;;;;;50.40;27.20;;;;;;;0.67;66.96;99700.88;2054453;86;32257;-63
2022/12/15 11:14:50;;;;;;;45.98;26.77;;;;;;;0.51;66.64;99709.95;2054652;86;29801;-65
2022/12/15 11:18:20;;;;;;;47.73;26.25;;;;;;;0.44;66.89;99717.99;2054804;86;28198;-62
2022/12/15 11:21:30;;;;;;;47.30;26.12;;;;;;;0.41;66.74;99722.45;2054503;86;29051;-62
2022/12/15 11:24:39;;;;;;;47.65;28.38;;;;;;;0.36;66.81;99726.92;2053878;86;31199;-72
2022/12/15 11:27:42;;;;;;;47.25;26.07;;;;;;;0.37;66.90;99731.30;2053863;86;33047;-62
2022/12/15 11:31:07;;;;;;;49.63;26.70;;;;;;;0.37;66.92;99732.62;2054094;86;29324;-65
2022/12/15 11:34:12;;;;;;;44.10;25.90;;;;;;;0.42;66.96;99734.70;2054756;86;27725;-60
2022/12/15 11:37:39;;;;;;;;;;;;;;;0.49;66.83;99738.98;2037504;86;29953;-65
2022/12/15 11:40:42;;;;;;;50.35;25.68;;;;;;;0.52;66.99;99737.62;2054480;86;31083;-63
2022/12/15 11:44:19;;;;;;;50.03;26.77;;;;;;;0.54;66.88;99721.34;2053863;83;33347;-63
2022/12/15 11:47:45;;;;;;;45.33;24.57;;;;;;;0.57;66.76;99732.27;2054209;86;30092;-64
2022/12/15 11:51:01;;;;;;;44.95;25.17;;;;;;;0.56;66.70;99731.41;2053794;86;27743;-65
2022/12/15 11:54:15;;;;;;;46.92;25.95;;;;;;;0.54;66.23;99738.47;2054620;86;29451;-65
2022/12/15 11:57:44;;;;;;;43.08;24.85;;;;;;;0.53;66.43;99749.02;2054740;86;31432;-63
2022/12/15 12:01:21;;;;;;;43.40;24.07;;;;;;;0.55;66.28;99751.19;2053779;86;33735;-67
2022/12/15 12:04:40;;;;;;;42.25;24.25;;;;;;;0.58;66.56;99757.73;2054413;86;29429;-63
2022/12/15 12:07:50;;;;;;;48.75;26.77;;;;;;;0.59;66.37;99756.37;2054555;86;27703;-63
2022/12/15 12:11:03;;;;;;;43.98;25.25;;;;;;;0.61;66.44;99761.62;2054645;86;28717;-62
2022/12/15 12:14:18;;;;;;;42.60;24.77;;;;;;;0.60;66.16;99759.42;2054913;86;31710;-63
2022/12/15 12:17:52;;;;;;;52.60;29.50;;;;;;;0.60;66.18;99762.52;2054342;86;29025;-62
2022/12/15 12:21:12;;;;;;;43.35;26.00;;;;;;;0.58;66.00;99754.63;2054604;86;29781;-64
2022/12/15 12:24:26;;;;;;;40.73;22.45;;;;;;;0.57;66.11;99742.80;2054811;86;27716;-64
2022/12/15 12:27:41;;;;;;;42.38;22.17;;;;;;;0.56;66.05;99751.61;2054742;86;29080;-63
2022/12/15 12:30:46;;;;;;;40.58;22.10;;;;;;;0.51;65.66;99751.70;2054476;86;31954;-66
2022/12/15 12:33:51;;;;;;;37.88;21.12;;;;;;;0.49;65.50;99751.31;2054490;86;33071;-65
2022/12/15 12:36:54;;;;;;;39.75;22.50;;;;;;;0.43;65.39;99754.89;2054824;86;29241;-64
2022/12/15 12:40:01;;;;;;;43.45;23.42;;;;;;;0.39;65.54;99748.81;2054648;86;27709;-65
2022/12/15 12:43:04;;;;;;;40.58;22.58;;;;;;;0.34;65.29;99739.25;2054513;83;28684;-63
2022/12/15 12:46:21;;;;;;;44.60;22.20;;;;;;;0.32;65.44;99735.34;2054433;86;32387;-62
2022/12/15 12:49:28;;;;;;;43.35;23.47;;;;;;;0.31;65.45;99734.92;2036020;86;33219;-64
2022/12/15 12:52:35;;;;;;;44.27;24.95;;;;;;;0.28;65.43;99734.96;2054660;86;29354;-64
2022/12/15 12:55:41;;;;;;;43.08;23.75;;;;;;;0.29;65.54;99738.02;2058025;86;27728;-64
2022/12/15 12:58:44;;;;;;;68.40;42.78;;;;;;;0.31;65.52;99745.45;2035326;86;28733;-64
2022/12/15 13:01:46;;;;;;;46.65;27.70;;;;;;;0.28;65.36;99742.86;2054581;86;32199;-64
2022/12/15 13:05:24;;;;;;;42.50;24.40;;;;;;;0.25;65.31;99724.00;2034026;86;35098;-64
2022/12/15 13:08:30;;;;;;;39.85;23.62;;;;;;;0.25;65.27;99721.83;2036114;86;31545;-62
2022/12/15 13:11:52;;;;;;;42.90;24.05;;;;;;;0.22;65.36;99727.15;2033357;86;27826;-64
2022/12/15 13:14:55;;;;;;;46.75;27.35;;;;;;;0.24;65.46;99729.31;2054802;86;29508;-64
2022/12/15 13:18:20;;;;;;;46.88;25.68;;;;;;;0.23;65.64;99736.36;2054640;86;31851;-63
2022/12/15 13:21:51;;;;;;;41.13;24.50;;;;;;;0.26;65.58;99738.92;2058042;86;33724;-65
2022/12/15 13:24:55;;;;;;;41.08;22.82;;;;;;;0.26;65.38;99742.02;2054318;86;30498;-65
2022/12/15 13:28:00;;;;;;;43.92;24.10;;;;;;;0.25;65.23;99739.81;2050557;85;27771;-64
2022/12/15 13:31:21;;;;;;;47.07;26.73;;;;;;;0.26;65.56;99744.19;2035843;85;29746;-64
2022/12/15 13:34:25;;;;;;;46.48;25.77;;;;;;;0.26;65.80;99739.38;2045178;85;30286;-63
2022/12/15 13:37:49;;;;;;;45.95;25.50;;;;;;;0.26;65.47;99744.19;2013787;85;33835;-63
2022/12/15 13:40:53;;;;;;;48.00;24.87;;;;;;;0.26;65.33;99745.50;2049002;85;30674;-63
2022/12/15 13:43:55;;;;;;;40.92;24.02;;;;;;;0.23;65.32;99740.31;2054129;84;27861;-63
2022/12/15 13:47:23;;;;;;;42.43;22.27;;;;;;;0.18;64.94;99732.92;2022872;85;28711;-67
2022/12/15 13:50:36;;;;;;;40.85;22.73;;;;;;;0.15;64.95;99752.72;2026582;85;58286;-62
2022/12/15 13:53:43;;;;;;;44.67;21.20;;;;;;;0.12;65.17;99757.59;2053807;85;34627;-65
2022/12/15 13:56:54;;;;;;;43.10;23.52;;;;;;;0.11;65.29;99766.39;2054450;85;29373;-66
2022/12/15 14:00:04;;;;;;;43.78;23.87;;;;;;;0.07;65.08;99769.11;2053902;85;27729;-64
2022/12/15 14:03:11;;;;;;;39.88;23.32;;;;;;;0.04;65.25;99771.31;2054129;85;28646;-64
2022/12/15 14:06:14;;;;;;;44.27;24.77;;;;;;;0.00;65.01;99773.59;2054254;85;31084;-64
2022/12/15 14:09:23;;;;;;;39.38;22.40;;;;;;;-0.06;65.26;99774.53;2058730;85;33064;-64
2022/12/15 14:12:26;;;;;;;41.55;23.80;;;;;;;-0.10;65.06;99785.13;2024466;85;29355;-67
2022/12/15 14:15:31;;;;;;;41.65;22.65;;;;;;;-0.19;64.74;99783.50;2013462;86;27631;-64
2022/12/15 14:18:37;;;;;;;50.50;25.15;;;;;;;-0.26;65.02;99785.35;2035710;86;28693;-63
2022/12/15 14:21:40;;;;;;;50.75;27.90;;;;;;;-0.36;64.50;99793.81;2022438;86;32019;-67
2022/12/15 14:24:44;;;;;;;62.98;30.30;;;;;;;-0.46;64.85;99797.47;2018546;87;33050;-64
2022/12/15 14:27:47;;;;;;;60.95;30.65;;;;;;;-0.57;64.55;99791.44;2022636;86;29684;-64
2022/12/15 14:30:50;;;;;;;81.53;38.17;;;;;;;-0.68;64.64;99799.03;2002973;86;27822;-64
2022/12/15 14:34:08;;;;;;;61.65;31.57;;;;;;;-0.78;64.65;99806.61;2017502;86;30166;-64
2022/12/15 14:37:17;;;;;;;114.52;50.12;;;;;;;-0.88;65.00;99815.05;1986770;86;31218;-63
2022/12/15 14:40:21;;;;;;;89.13;43.80;;;;;;;-1.00;64.81;99821.30;2023067;86;33010;-64
2022/12/15 14:43:31;;;;;;;79.07;38.30;;;;;;;-1.12;64.88;99825.36;2036981;84;29342;-63
2022/12/15 14:46:34;;;;;;;73.92;37.28;;;;;;;-1.25;64.82;99825.48;2096239;83;27735;-65
2022/12/15 14:49:40;;;;;;;68.97;35.03;;;;;;;-1.38;64.73;99827.34;2090035;84;29599;-65
2022/12/15 14:52:42;;;;;;;70.00;37.70;;;;;;;-1.48;64.80;99838.78;2090602;84;30933;-65
2022/12/15 14:55:44;;;;;;;70.65;34.03;;;;;;;-1.64;64.95;99835.84;2070794;84;33035;-66
2022/12/15 14:58:53;;;;;;;61.15;32.13;;;;;;;-1.74;65.07;99839.01;2091113;84;30808;-67
2022/12/15 15:02:19;;;;;;;62.85;32.90;;;;;;;-1.86;65.23;99845.20;2090944;84;28212;-65
2022/12/15 15:05:26;;;;;;;68.78;35.25;;;;;;;-2.00;65.30;99846.16;2081023;84;29762;-67
2022/12/15 15:08:34;;;;;;;74.82;37.58;;;;;;;-2.10;65.53;99860.20;2090649;84;31434;-66
2022/12/15 15:11:39;;;;;;;84.03;41.58;;;;;;;-2.18;65.64;99860.23;2090814;83;32966;-66
2022/12/15 15:14:51;;;;;;;138.47;58.95;;;;;;;-2.29;65.82;99856.80;2090719;84;29350;-67
2022/12/15 15:17:56;;;;;;;101.05;47.67;;;;;;;-2.37;65.91;99862.50;2084659;84;27756;-66
2022/12/15 15:21:07;;;;;;;106.30;47.40;;;;;;;-2.46;66.02;99868.65;2090517;84;28659;-63
2022/12/15 15:24:14;;;;;;;113.17;50.28;;;;;;;-2.55;66.19;99872.63;2086114;84;32280;-64
2022/12/15 15:27:29;;;;;;;104.05;49.03;;;;;;;-2.63;66.26;99871.34;2079395;84;34147;-64
2022/12/15 15:30:40;;;;;;;104.12;48.13;;;;;;;-2.71;66.31;99868.73;2075809;84;36729;-66
2022/12/15 15:33:42;;;;;;;96.60;51.20;;;;;;;-2.81;66.37;99875.75;2090598;84;27650;-64
2022/12/15 15:36:44;;;;;;;93.20;46.65;;;;;;;-2.90;66.57;99878.39;2090682;84;29914;-63
2022/12/15 15:39:48;;;;;;;96.95;47.10;;;;;;;-2.99;66.66;99862.67;2091000;84;31627;-63
2022/12/15 15:42:50;;;;;;;97.40;45.85;;;;;;;-3.06;66.67;99865.73;2090802;84;34118;-64
2022/12/15 15:46:02;;;;;;;93.75;46.28;;;;;;;-3.16;66.76;99858.31;2093998;84;30039;-65
2022/12/15 15:49:06;;;;;;;95.85;48.78;;;;;;;-3.26;66.83;99867.92;2093764;84;28319;-64
2022/12/15 15:52:10;;;;;;;69.85;39.42;;;;;;;-3.34;66.90;99863.14;2094689;84;29047;-65
2022/12/15 15:55:19;;;;;;;95.87;47.33;;;;;;;-3.41;67.01;99861.38;2094532;84;31810;-63
2022/12/15 15:58:21;;;;;;;112.08;52.45;;;;;;;-3.51;67.01;99856.16;2058730;85;32969;-63
2022/12/15 16:01:23;;;;;;;122.75;53.78;;;;;;;-3.60;67.03;99861.81;2046050;85;29379;-63
2022/12/15 16:04:25;;;;;;;124.82;55.78;;;;;;;-3.70;67.12;99854.38;2082445;85;27761;-63
2022/12/15 16:07:28;;;;;;;118.28;54.88;;;;;;;-3.80;67.21;99846.95;2093758;84;28636;-64
2022/12/15 16:10:30;;;;;;;112.57;52.65;;;;;;;-3.88;67.37;99846.05;2094359;84;30836;-63
2022/12/15 16:13:31;;;;;;;108.20;51.02;;;;;;;-3.96;67.43;99855.19;2094010;84;33326;-64
2022/12/15 16:16:33;;;;;;;111.72;50.75;;;;;;;-4.04;67.47;99846.47;2094767;84;30479;-63
2022/12/15 16:19:35;;;;;;;110.72;49.45;;;;;;;-4.14;67.47;99838.61;2093989;84;27615;-64
2022/12/15 16:22:37;;;;;;;106.47;50.25;;;;;;;-4.22;67.58;99844.23;2093928;84;29987;-63
2022/12/15 16:25:51;;;;;;;109.45;51.00;;;;;;;-4.29;67.75;99848.99;2093956;84;32183;-63
2022/12/15 16:28:53;;;;;;;130.30;58.70;;;;;;;-4.36;67.69;99843.32;2067573;85;34166;-64
2022/12/15 16:31:55;;;;;;;136.30;62.62;;;;;;;-4.45;67.71;99845.02;2045446;85;29926;-62
2022/12/15 16:34:57;;;;;;;154.50;70.32;;;;;;;-4.52;67.80;99847.59;2082316;85;27859;-64
2022/12/15 16:37:59;;;;;;;119.93;57.08;;;;;;;-4.59;67.84;99849.31;2081257;85;29250;-64
2022/12/15 16:41:06;;;;;;;115.95;53.63;;;;;;;-4.65;67.90;99863.67;2082517;85;31125;-66
2022/12/15 16:44:11;;;;;;;111.70;51.73;;;;;;;-4.73;67.87;99872.33;2094080;84;33850;-63
2022/12/15 16:47:12;;;;;;;113.47;51.85;;;;;;;-4.80;67.92;99881.44;2103552;83;29445;-62
2022/12/15 16:50:17;;;;;;;103.50;48.48;;;;;;;-4.88;68.03;99884.86;2071625;84;27927;-60